sensor_id;sensor_type;location;lat;lon;timestamp;pressure;altitude;pressure_sealevel;temperature;humidity
36798;BME280;22748;8.426;99.512;2023-05-13T00:00:21;100776.75;;;31.12;58.07
36798;BME280;22748;8.426;99.512;2023-05-13T00:02:50;100778.97;;;31.15;57.88
36798;BME280;22748;8.426;99.512;2023-05-13T00:05:20;100777.72;;;31.18;57.63
36798;BME280;22748;8.426;99.512;2023-05-13T00:07:49;100780.25;;;31.13;58.27
36798;BME280;22748;8.426;99.512;2023-05-13T00:10:18;100781.91;;;31.14;58.13
36798;BME280;22748;8.426;99.512;2023-05-13T00:12:49;100786.41;;;31.20;57.95
36798;BME280;22748;8.426;99.512;2023-05-13T00:15:19;100791.00;;;31.20;58.16
36798;BME280;22748;8.426;99.512;2023-05-13T00:17:49;100798.41;;;31.24;58.49
36798;BME280;22748;8.426;99.512;2023-05-13T00:20:18;100792.00;;;31.25;58.34
36798;BME280;22748;8.426;99.512;2023-05-13T00:22:48;100793.63;;;31.26;58.52
36798;BME280;22748;8.426;99.512;2023-05-13T00:25:18;100786.75;;;31.30;58.12
36798;BME280;22748;8.426;99.512;2023-05-13T00:27:49;100796.66;;;31.36;58.09
36798;BME280;22748;8.426;99.512;2023-05-13T00:30:22;100797.69;;;31.35;58.45
36798;BME280;22748;8.426;99.512;2023-05-13T00:32:51;100795.59;;;31.37;58.35
36798;BME280;22748;8.426;99.512;2023-05-13T00:35:20;100794.94;;;31.42;58.64
36798;BME280;22748;8.426;99.512;2023-05-13T00:37:49;100804.06;;;31.48;58.25
36798;BME280;22748;8.426;99.512;2023-05-13T00:40:20;100801.94;;;31.50;58.47
36798;BME280;22748;8.426;99.512;2023-05-13T00:42:52;100808.34;;;31.55;58.50
36798;BME280;22748;8.426;99.512;2023-05-13T00:45:22;100807.69;;;31.60;58.40
36798;BME280;22748;8.426;99.512;2023-05-13T00:47:51;100820.94;;;31.62;58.42
36798;BME280;22748;8.426;99.512;2023-05-13T00:50:21;100814.50;;;31.63;58.52
36798;BME280;22748;8.426;99.512;2023-05-13T00:52:50;100816.53;;;31.67;58.15
36798;BME280;22748;8.426;99.512;2023-05-13T00:55:19;100821.91;;;31.49;59.28
36798;BME280;22748;8.426;99.512;2023-05-13T00:57:49;100819.34;;;31.54;59.16
36798;BME280;22748;8.426;99.512;2023-05-13T01:00:21;100815.31;;;31.63;59.27
36798;BME280;22748;8.426;99.512;2023-05-13T01:02:52;100809.50;;;31.66;59.07
36798;BME280;22748;8.426;99.512;2023-05-13T01:05:25;100821.28;;;31.22;60.68
36798;BME280;22748;8.426;99.512;2023-05-13T01:07:59;100818.38;;;31.23;60.79
36798;BME280;22748;8.426;99.512;2023-05-13T01:10:35;100819.41;;;31.22;60.59
36798;BME280;22748;8.426;99.512;2023-05-13T01:13:08;100812.19;;;31.41;59.87
36798;BME280;22748;8.426;99.512;2023-05-13T01:15:40;100815.31;;;31.63;59.70
36798;BME280;22748;8.426;99.512;2023-05-13T01:18:14;100823.50;;;31.93;59.01
36798;BME280;22748;8.426;99.512;2023-05-13T01:20:44;100824.97;;;32.14;58.87
36798;BME280;22748;8.426;99.512;2023-05-13T01:23:16;100831.53;;;32.37;58.44
36798;BME280;22748;8.426;99.512;2023-05-13T01:25:45;100836.53;;;32.52;57.79
36798;BME280;22748;8.426;99.512;2023-05-13T01:28:16;100836.38;;;32.65;57.35
36798;BME280;22748;8.426;99.512;2023-05-13T01:30:47;100840.06;;;32.71;56.78
36798;BME280;22748;8.426;99.512;2023-05-13T01:33:16;100838.41;;;32.70;56.76
36798;BME280;22748;8.426;99.512;2023-05-13T01:35:47;100834.66;;;32.71;57.14
36798;BME280;22748;8.426;99.512;2023-05-13T01:38:17;100830.41;;;32.75;57.03
36798;BME280;22748;8.426;99.512;2023-05-13T01:40:48;100834.47;;;32.84;56.92
36798;BME280;22748;8.426;99.512;2023-05-13T01:43:19;100830.69;;;32.85;56.36
36798;BME280;22748;8.426;99.512;2023-05-13T01:45:49;100829.50;;;32.81;56.00
36798;BME280;22748;8.426;99.512;2023-05-13T01:48:18;100822.06;;;32.46;56.49
36798;BME280;22748;8.426;99.512;2023-05-13T01:50:47;100821.53;;;32.56;56.56
36798;BME280;22748;8.426;99.512;2023-05-13T01:53:18;100811.53;;;32.56;56.51
36798;BME280;22748;8.426;99.512;2023-05-13T01:55:48;100808.63;;;32.58;56.40
36798;BME280;22748;8.426;99.512;2023-05-13T01:58:18;100811.53;;;32.56;56.82
36798;BME280;22748;8.426;99.512;2023-05-13T02:00:47;100810.03;;;32.61;56.84
36798;BME280;22748;8.426;99.512;2023-05-13T02:03:16;100811.44;;;32.63;56.59
36798;BME280;22748;8.426;99.512;2023-05-13T02:05:49;100812.28;;;32.64;56.67
36798;BME280;22748;8.426;99.512;2023-05-13T02:08:24;100809.06;;;32.55;56.93
36798;BME280;22748;8.426;99.512;2023-05-13T02:10:57;100817.78;;;32.57;56.61
36798;BME280;22748;8.426;99.512;2023-05-13T02:13:27;100818.59;;;32.57;56.53
36798;BME280;22748;8.426;99.512;2023-05-13T02:15:56;100810.25;;;32.59;56.68
36798;BME280;22748;8.426;99.512;2023-05-13T02:18:26;100807.84;;;32.51;56.95
36798;BME280;22748;8.426;99.512;2023-05-13T02:20:55;100801.22;;;32.53;56.47
36798;BME280;22748;8.426;99.512;2023-05-13T02:23:27;100797.81;;;32.58;56.67
36798;BME280;22748;8.426;99.512;2023-05-13T02:25:58;100800.16;;;32.66;56.74
36798;BME280;22748;8.426;99.512;2023-05-13T02:28:27;100805.47;;;32.73;56.47
36798;BME280;22748;8.426;99.512;2023-05-13T02:30:57;100802.44;;;32.81;56.58
36798;BME280;22748;8.426;99.512;2023-05-13T02:33:27;100806.94;;;32.87;56.34
36798;BME280;22748;8.426;99.512;2023-05-13T02:35:56;100806.13;;;32.87;56.44
36798;BME280;22748;8.426;99.512;2023-05-13T02:38:27;100804.44;;;32.74;56.58
36798;BME280;22748;8.426;99.512;2023-05-13T02:40:57;100793.38;;;32.75;56.37
36798;BME280;22748;8.426;99.512;2023-05-13T02:43:26;100799.16;;;32.79;56.27
36798;BME280;22748;8.426;99.512;2023-05-13T02:45:55;100785.75;;;32.84;56.41
36798;BME280;22748;8.426;99.512;2023-05-13T02:48:24;100786.09;;;32.88;56.10
36798;BME280;22748;8.426;99.512;2023-05-13T02:50:53;100785.41;;;32.92;56.06
36798;BME280;22748;8.426;99.512;2023-05-13T02:53:23;100775.06;;;33.01;55.94
36798;BME280;22748;8.426;99.512;2023-05-13T02:55:54;100779.81;;;33.06;55.64
36798;BME280;22748;8.426;99.512;2023-05-13T02:58:24;100777.81;;;33.13;55.30
36798;BME280;22748;8.426;99.512;2023-05-13T03:00:55;100779.25;;;33.15;55.31
36798;BME280;22748;8.426;99.512;2023-05-13T03:03:25;100772.66;;;33.23;55.50
36798;BME280;22748;8.426;99.512;2023-05-13T03:06:00;100771.69;;;33.29;55.29
36798;BME280;22748;8.426;99.512;2023-05-13T03:08:30;100766.41;;;33.34;55.17
36798;BME280;22748;8.426;99.512;2023-05-13T03:11:01;100768.28;;;33.34;54.23
36798;BME280;22748;8.426;99.512;2023-05-13T03:13:33;100763.72;;;33.34;54.71
36798;BME280;22748;8.426;99.512;2023-05-13T03:16:08;100761.09;;;33.39;54.45
36798;BME280;22748;8.426;99.512;2023-05-13T03:18:38;100759.34;;;33.45;54.45
36798;BME280;22748;8.426;99.512;2023-05-13T03:21:08;100752.63;;;33.48;53.75
36798;BME280;22748;8.426;99.512;2023-05-13T03:23:37;100750.88;;;33.42;53.50
36798;BME280;22748;8.426;99.512;2023-05-13T03:26:10;100749.34;;;33.46;53.45
36798;BME280;22748;8.426;99.512;2023-05-13T03:28:39;100743.69;;;33.59;53.65
36798;BME280;22748;8.426;99.512;2023-05-13T03:31:11;100746.84;;;33.56;53.26
36798;BME280;22748;8.426;99.512;2023-05-13T03:33:40;100741.56;;;33.61;53.28
36798;BME280;22748;8.426;99.512;2023-05-13T03:36:09;100742.25;;;33.68;53.26
36798;BME280;22748;8.426;99.512;2023-05-13T03:38:38;100739.66;;;33.73;52.88
36798;BME280;22748;8.426;99.512;2023-05-13T03:41:09;100743.41;;;33.72;52.44
36798;BME280;22748;8.426;99.512;2023-05-13T03:43:42;100736.84;;;33.68;52.91
36798;BME280;22748;8.426;99.512;2023-05-13T03:46:12;100719.63;;;33.74;52.80
36798;BME280;22748;8.426;99.512;2023-05-13T03:48:42;100730.81;;;33.78;52.74
36798;BME280;22748;8.426;99.512;2023-05-13T03:51:12;100731.16;;;33.81;52.19
36798;BME280;22748;8.426;99.512;2023-05-13T03:53:41;100726.44;;;33.89;52.25
36798;BME280;22748;8.426;99.512;2023-05-13T03:56:13;100722.25;;;33.98;51.76
36798;BME280;22748;8.426;99.512;2023-05-13T03:58:43;100718.25;;;34.00;51.82
36798;BME280;22748;8.426;99.512;2023-05-13T04:01:12;100711.03;;;34.06;51.80
36798;BME280;22748;8.426;99.512;2023-05-13T04:03:41;100710.66;;;34.14;51.81
36798;BME280;22748;8.426;99.512;2023-05-13T04:06:12;100702.66;;;34.19;51.57
36798;BME280;22748;8.426;99.512;2023-05-13T04:08:42;100704.03;;;34.22;51.31
36798;BME280;22748;8.426;99.512;2023-05-13T04:11:14;100692.13;;;34.23;51.26
36798;BME280;22748;8.426;99.512;2023-05-13T04:13:44;100687.13;;;34.15;50.99
36798;BME280;22748;8.426;99.512;2023-05-13T04:16:13;100690.66;;;34.15;50.97
36798;BME280;22748;8.426;99.512;2023-05-13T04:18:44;100696.97;;;34.21;50.85
36798;BME280;22748;8.426;99.512;2023-05-13T04:21:17;100694.13;;;34.28;50.74
36798;BME280;22748;8.426;99.512;2023-05-13T04:23:48;100691.41;;;34.28;50.70
36798;BME280;22748;8.426;99.512;2023-05-13T04:26:25;100686.53;;;34.30;50.23
36798;BME280;22748;8.426;99.512;2023-05-13T04:28:55;100688.84;;;34.38;50.30
36798;BME280;22748;8.426;99.512;2023-05-13T04:31:24;100681.88;;;34.42;50.21
36798;BME280;22748;8.426;99.512;2023-05-13T04:33:56;100682.69;;;34.42;50.28
36798;BME280;22748;8.426;99.512;2023-05-13T04:36:25;100684.66;;;34.47;49.54
36798;BME280;22748;8.426;99.512;2023-05-13T04:38:54;100685.59;;;34.53;49.03
36798;BME280;22748;8.426;99.512;2023-05-13T04:41:26;100683.28;;;34.61;48.55
36798;BME280;22748;8.426;99.512;2023-05-13T04:43:55;100676.56;;;34.64;48.28
36798;BME280;22748;8.426;99.512;2023-05-13T04:46:36;100671.03;;;34.59;48.52
36798;BME280;22748;8.426;99.512;2023-05-13T04:49:06;100666.25;;;34.49;47.52
36798;BME280;22748;8.426;99.512;2023-05-13T04:51:49;100665.78;;;34.52;47.73
36798;BME280;22748;8.426;99.512;2023-05-13T04:54:18;100658.22;;;34.54;47.59
36798;BME280;22748;8.426;99.512;2023-05-13T04:56:50;100663.16;;;34.57;47.34
36798;BME280;22748;8.426;99.512;2023-05-13T04:59:20;100657.25;;;34.60;47.15
36798;BME280;22748;8.426;99.512;2023-05-13T05:01:50;100658.41;;;34.65;47.39
36798;BME280;22748;8.426;99.512;2023-05-13T05:04:19;100647.88;;;34.68;47.43
36798;BME280;22748;8.426;99.512;2023-05-13T05:06:52;100639.97;;;34.67;47.63
36798;BME280;22748;8.426;99.512;2023-05-13T05:09:22;100632.41;;;34.69;47.76
36798;BME280;22748;8.426;99.512;2023-05-13T05:11:53;100637.84;;;34.69;47.50
36798;BME280;22748;8.426;99.512;2023-05-13T05:14:23;100632.41;;;34.69;47.67
36798;BME280;22748;8.426;99.512;2023-05-13T05:16:52;100619.13;;;34.67;46.91
36798;BME280;22748;8.426;99.512;2023-05-13T05:19:21;100611.88;;;34.73;46.77
36798;BME280;22748;8.426;99.512;2023-05-13T05:21:56;100607.41;;;34.83;46.72
36798;BME280;22748;8.426;99.512;2023-05-13T05:24:27;100612.16;;;34.93;46.25
36798;BME280;22748;8.426;99.512;2023-05-13T05:26:59;100603.56;;;35.01;45.73
36798;BME280;22748;8.426;99.512;2023-05-13T05:29:28;100604.22;;;35.09;45.17
36798;BME280;22748;8.426;99.512;2023-05-13T05:31:57;100593.94;;;35.11;44.34
36798;BME280;22748;8.426;99.512;2023-05-13T05:34:27;100592.03;;;35.11;44.04
36798;BME280;22748;8.426;99.512;2023-05-13T05:36:56;100585.31;;;35.14;44.16
36798;BME280;22748;8.426;99.512;2023-05-13T05:39:27;100577.53;;;35.22;43.91
36798;BME280;22748;8.426;99.512;2023-05-13T05:41:58;100567.25;;;35.25;43.94
36798;BME280;22748;8.426;99.512;2023-05-13T05:44:28;100558.28;;;35.24;43.80
36798;BME280;22748;8.426;99.512;2023-05-13T05:46:58;100561.78;;;35.19;43.92
36798;BME280;22748;8.426;99.512;2023-05-13T05:49:28;100556.06;;;35.21;44.15
36798;BME280;22748;8.426;99.512;2023-05-13T05:51:58;100545.78;;;35.23;42.82
36798;BME280;22748;8.426;99.512;2023-05-13T05:54:29;100539.78;;;35.21;43.45
36798;BME280;22748;8.426;99.512;2023-05-13T05:57:01;100541.47;;;35.27;43.46
36798;BME280;22748;8.426;99.512;2023-05-13T05:59:30;100543.69;;;35.30;44.00
36798;BME280;22748;8.426;99.512;2023-05-13T06:02:00;100546.03;;;35.21;44.17
36798;BME280;22748;8.426;99.512;2023-05-13T06:04:30;100533.13;;;35.12;44.07
36798;BME280;22748;8.426;99.512;2023-05-13T06:07:07;100532.91;;;35.13;44.16
36798;BME280;22748;8.426;99.512;2023-05-13T06:09:37;100544.06;;;35.17;44.04
36798;BME280;22748;8.426;99.512;2023-05-13T06:12:08;100530.81;;;35.20;44.10
36798;BME280;22748;8.426;99.512;2023-05-13T06:14:38;100532.97;;;35.18;44.10
36798;BME280;22748;8.426;99.512;2023-05-13T06:17:08;100526.84;;;35.28;43.99
36798;BME280;22748;8.426;99.512;2023-05-13T06:19:39;100523.94;;;35.35;43.74
36798;BME280;22748;8.426;99.512;2023-05-13T06:22:10;100514.56;;;35.48;43.53
36798;BME280;22748;8.426;99.512;2023-05-13T06:24:39;100514.13;;;35.61;43.39
36798;BME280;22748;8.426;99.512;2023-05-13T06:27:14;100503.56;;;35.64;43.13
36798;BME280;22748;8.426;99.512;2023-05-13T06:29:44;100500.66;;;35.71;42.81
36798;BME280;22748;8.426;99.512;2023-05-13T06:32:14;100497.19;;;35.76;42.45
36798;BME280;22748;8.426;99.512;2023-05-13T06:34:43;100494.75;;;35.79;42.60
36798;BME280;22748;8.426;99.512;2023-05-13T06:37:16;100494.25;;;35.82;42.65
36798;BME280;22748;8.426;99.512;2023-05-13T06:39:46;100486.66;;;35.84;42.72
36798;BME280;22748;8.426;99.512;2023-05-13T06:42:19;100486.66;;;35.84;42.59
36798;BME280;22748;8.426;99.512;2023-05-13T06:44:48;100480.91;;;35.81;42.83
36798;BME280;22748;8.426;99.512;2023-05-13T06:47:18;100482.25;;;35.78;43.30
36798;BME280;22748;8.426;99.512;2023-05-13T06:49:51;100475.72;;;35.79;42.50
36798;BME280;22748;8.426;99.512;2023-05-13T06:52:20;100469.22;;;35.80;42.60
36798;BME280;22748;8.426;99.512;2023-05-13T06:54:50;100454.28;;;35.83;42.41
36798;BME280;22748;8.426;99.512;2023-05-13T06:57:22;100456.78;;;35.90;42.47
36798;BME280;22748;8.426;99.512;2023-05-13T06:59:52;100454.13;;;36.00;42.04
36798;BME280;22748;8.426;99.512;2023-05-13T07:02:22;100447.34;;;36.02;41.97
36798;BME280;22748;8.426;99.512;2023-05-13T07:04:52;100448.97;;;35.98;41.76
36798;BME280;22748;8.426;99.512;2023-05-13T07:07:21;100448.16;;;35.98;41.90
36798;BME280;22748;8.426;99.512;2023-05-13T07:09:50;100442.41;;;35.94;42.03
36798;BME280;22748;8.426;99.512;2023-05-13T07:12:19;100435.38;;;35.98;41.71
36798;BME280;22748;8.426;99.512;2023-05-13T07:14:49;100429.44;;;36.07;41.43
36798;BME280;22748;8.426;99.512;2023-05-13T07:17:19;100429.78;;;36.15;41.15
36798;BME280;22748;8.426;99.512;2023-05-13T07:19:48;100425.75;;;36.23;40.92
36798;BME280;22748;8.426;99.512;2023-05-13T07:22:22;100430.13;;;36.24;41.09
36798;BME280;22748;8.426;99.512;2023-05-13T07:24:54;100426.00;;;36.21;40.85
36798;BME280;22748;8.426;99.512;2023-05-13T07:27:24;100426.53;;;36.18;40.72
36798;BME280;22748;8.426;99.512;2023-05-13T07:29:55;100427.34;;;36.19;40.83
36798;BME280;22748;8.426;99.512;2023-05-13T07:32:24;100427.59;;;36.12;41.03
36798;BME280;22748;8.426;99.512;2023-05-13T07:34:53;100428.66;;;36.11;40.10
36798;BME280;22748;8.426;99.512;2023-05-13T07:37:23;100424.03;;;36.12;39.96
36798;BME280;22748;8.426;99.512;2023-05-13T07:39:52;100418.38;;;36.13;40.17
36798;BME280;22748;8.426;99.512;2023-05-13T07:42:21;100423.22;;;36.11;40.37
36798;BME280;22748;8.426;99.512;2023-05-13T07:44:52;100416.66;;;36.07;40.80
36798;BME280;22748;8.426;99.512;2023-05-13T07:47:23;100413.38;;;36.00;41.09
36798;BME280;22748;8.426;99.512;2023-05-13T07:49:53;100411.72;;;35.99;40.98
36798;BME280;22748;8.426;99.512;2023-05-13T07:52:23;100411.22;;;36.02;40.88
36798;BME280;22748;8.426;99.512;2023-05-13T07:54:53;100400.34;;;36.02;40.72
36798;BME280;22748;8.426;99.512;2023-05-13T07:57:29;100407.34;;;35.93;41.18
36798;BME280;22748;8.426;99.512;2023-05-13T07:59:59;100404.06;;;35.91;41.33
36798;BME280;22748;8.426;99.512;2023-05-13T08:02:30;100403.53;;;35.94;41.33
36798;BME280;22748;8.426;99.512;2023-05-13T08:05:00;100397.00;;;35.95;41.35
36798;BME280;22748;8.426;99.512;2023-05-13T08:07:30;100390.78;;;35.99;41.14
36798;BME280;22748;8.426;99.512;2023-05-13T08:09:59;100388.06;;;35.94;41.42
36798;BME280;22748;8.426;99.512;2023-05-13T08:12:29;100380.47;;;35.96;41.50
36798;BME280;22748;8.426;99.512;2023-05-13T08:14:59;100382.91;;;35.98;41.40
36798;BME280;22748;8.426;99.512;2023-05-13T08:17:32;100370.69;;;36.00;41.21
36798;BME280;22748;8.426;99.512;2023-05-13T08:20:01;100380.78;;;36.10;40.81
36798;BME280;22748;8.426;99.512;2023-05-13T08:22:31;100380.03;;;36.15;40.83
36798;BME280;22748;8.426;99.512;2023-05-13T08:25:01;100376.78;;;36.18;40.68
36798;BME280;22748;8.426;99.512;2023-05-13T08:27:30;100377.03;;;36.16;40.63
36798;BME280;22748;8.426;99.512;2023-05-13T08:30:00;100370.53;;;36.17;40.64
36798;BME280;22748;8.426;99.512;2023-05-13T08:32:32;100364.56;;;36.20;40.44
36798;BME280;22748;8.426;99.512;2023-05-13T08:35:02;100366.19;;;36.21;40.72
36798;BME280;22748;8.426;99.512;2023-05-13T08:37:32;100365.69;;;36.30;40.35
36798;BME280;22748;8.426;99.512;2023-05-13T08:40:02;100364.06;;;36.34;40.08
36798;BME280;22748;8.426;99.512;2023-05-13T08:42:31;100356.47;;;36.36;40.21
36798;BME280;22748;8.426;99.512;2023-05-13T08:45:01;100357.00;;;36.33;40.62
36798;BME280;22748;8.426;99.512;2023-05-13T08:47:36;100354.00;;;36.34;40.42
36798;BME280;22748;8.426;99.512;2023-05-13T08:50:08;100345.03;;;36.34;40.43
36798;BME280;22748;8.426;99.512;2023-05-13T08:52:38;100345.84;;;36.34;40.75
36798;BME280;22748;8.426;99.512;2023-05-13T08:55:08;100347.75;;;36.34;40.56
36798;BME280;22748;8.426;99.512;2023-05-13T08:57:37;100342.31;;;36.34;40.52
36798;BME280;22748;8.426;99.512;2023-05-13T09:00:07;100343.66;;;36.31;40.65
36798;BME280;22748;8.426;99.512;2023-05-13T09:02:39;100349.91;;;36.27;40.80
36798;BME280;22748;8.426;99.512;2023-05-13T09:05:09;100345.53;;;36.15;40.91
36798;BME280;22748;8.426;99.512;2023-05-13T09:07:38;100341.97;;;36.15;40.88
36798;BME280;22748;8.426;99.512;2023-05-13T09:21:31;100316.50;;;36.52;39.67
36798;BME280;22748;8.426;99.512;2023-05-13T09:24:17;100317.31;;;36.42;39.50
36798;BME280;22748;8.426;99.512;2023-05-13T09:26:48;100308.59;;;36.35;39.46
36798;BME280;22748;8.426;99.512;2023-05-13T09:29:21;100311.03;;;36.31;40.27
36798;BME280;22748;8.426;99.512;2023-05-13T09:31:58;100300.41;;;36.30;39.46
36798;BME280;22748;8.426;99.512;2023-05-13T09:34:31;100312.66;;;36.32;39.41
36798;BME280;22748;8.426;99.512;2023-05-13T09:37:06;100308.06;;;36.33;39.40
36798;BME280;22748;8.426;99.512;2023-05-13T09:39:39;100309.69;;;36.29;39.79
36798;BME280;22748;8.426;99.512;2023-05-13T09:42:15;100309.38;;;36.30;39.21
36798;BME280;22748;8.426;99.512;2023-05-13T09:44:47;100303.16;;;36.35;39.18
36798;BME280;22748;8.426;99.512;2023-05-13T09:47:17;100303.72;;;36.37;39.24
36798;BME280;22748;8.426;99.512;2023-05-13T09:49:56;100306.16;;;36.38;39.42
36798;BME280;22748;8.426;99.512;2023-05-13T09:52:29;100300.44;;;36.35;39.70
36798;BME280;22748;8.426;99.512;2023-05-13T09:55:00;100310.22;;;36.31;39.42
36798;BME280;22748;8.426;99.512;2023-05-13T09:57:33;100301.78;;;36.32;38.78
36798;BME280;22748;8.426;99.512;2023-05-13T10:00:11;100302.06;;;36.36;38.77
36798;BME280;22748;8.426;99.512;2023-05-13T10:02:42;100301.53;;;36.39;39.17
36798;BME280;22748;8.426;99.512;2023-05-13T10:05:12;100302.91;;;36.41;38.81
36798;BME280;22748;8.426;99.512;2023-05-13T10:07:44;100304.78;;;36.41;39.11
36798;BME280;22748;8.426;99.512;2023-05-13T10:10:17;100308.63;;;36.40;39.86
36798;BME280;22748;8.426;99.512;2023-05-13T10:12:50;100302.63;;;36.38;40.04
36798;BME280;22748;8.426;99.512;2023-05-13T10:15:21;100309.44;;;36.40;39.44
36798;BME280;22748;8.426;99.512;2023-05-13T10:17:51;100309.72;;;36.44;39.09
36798;BME280;22748;8.426;99.512;2023-05-13T10:20:22;100311.88;;;36.47;38.44
36798;BME280;22748;8.426;99.512;2023-05-13T10:22:57;100319.53;;;36.50;38.67
36798;BME280;22748;8.426;99.512;2023-05-13T10:25:27;100308.09;;;36.53;38.92
36798;BME280;22748;8.426;99.512;2023-05-13T10:27:59;100319.78;;;36.54;38.85
36798;BME280;22748;8.426;99.512;2023-05-13T10:30:33;100315.44;;;36.53;39.87
36798;BME280;22748;8.426;99.512;2023-05-13T10:33:03;100322.78;;;36.52;39.10
36798;BME280;22748;8.426;99.512;2023-05-13T10:35:36;100319.78;;;36.54;39.46
36798;BME280;22748;8.426;99.512;2023-05-13T10:38:11;100319.25;;;36.52;40.59
36798;BME280;22748;8.426;99.512;2023-05-13T10:41:08;100327.41;;;36.41;39.98
36798;BME280;22748;8.426;99.512;2023-05-13T10:43:40;100330.91;;;36.42;39.91
36798;BME280;22748;8.426;99.512;2023-05-13T10:46:12;100337.44;;;36.41;39.87
36798;BME280;22748;8.426;99.512;2023-05-13T10:48:45;100339.88;;;36.42;39.25
36798;BME280;22748;8.426;99.512;2023-05-13T10:51:17;100336.91;;;36.44;39.72
36798;BME280;22748;8.426;99.512;2023-05-13T10:53:51;100344.78;;;36.40;39.93
36798;BME280;22748;8.426;99.512;2023-05-13T10:56:23;100345.59;;;36.36;39.82
36798;BME280;22748;8.426;99.512;2023-05-13T10:59:00;100345.84;;;36.34;40.12
36798;BME280;22748;8.426;99.512;2023-05-13T11:01:33;100354.00;;;36.34;40.35
36798;BME280;22748;8.426;99.512;2023-05-13T11:04:06;100360.28;;;36.35;40.06
36798;BME280;22748;8.426;99.512;2023-05-13T11:06:35;100356.47;;;36.36;40.35
36798;BME280;22748;8.426;99.512;2023-05-13T11:09:11;100359.72;;;36.38;40.43
36798;BME280;22748;8.426;99.512;2023-05-13T11:11:45;100361.34;;;36.39;40.70
36798;BME280;22748;8.426;99.512;2023-05-13T11:14:17;100363.00;;;36.40;41.26
36798;BME280;22748;8.426;99.512;2023-05-13T11:16:51;100360.84;;;36.37;41.36
36798;BME280;22748;8.426;99.512;2023-05-13T11:19:24;100367.03;;;36.32;41.62
36798;BME280;22748;8.426;99.512;2023-05-13T11:22:02;100370.88;;;36.31;41.73
36798;BME280;22748;8.426;99.512;2023-05-13T11:24:35;100372.78;;;36.31;41.76
36798;BME280;22748;8.426;99.512;2023-05-13T11:27:13;100378.47;;;36.29;41.81
36798;BME280;22748;8.426;99.512;2023-05-13T11:29:49;100385.81;;;36.29;42.67
36798;BME280;22748;8.426;99.512;2023-05-13T11:35:22;100391.75;;;36.25;42.91
36798;BME280;22748;8.426;99.512;2023-05-13T11:37:54;100395.03;;;36.22;43.47
36798;BME280;22748;8.426;99.512;2023-05-13T11:40:27;100405.59;;;36.19;43.53
36798;BME280;22748;8.426;99.512;2023-05-13T11:43:00;100404.25;;;36.21;43.53
36798;BME280;22748;8.426;99.512;2023-05-13T11:45:31;100418.94;;;36.20;43.62
36798;BME280;22748;8.426;99.512;2023-05-13T11:48:19;100414.59;;;36.19;43.75
36798;BME280;22748;8.426;99.512;2023-05-13T11:50:50;100422.75;;;36.19;44.09
36798;BME280;22748;8.426;99.512;2023-05-13T11:53:21;100415.09;;;36.16;43.79
36798;BME280;22748;8.426;99.512;2023-05-13T11:55:54;100427.06;;;36.15;44.19
36798;BME280;22748;8.426;99.512;2023-05-13T11:58:24;100430.06;;;36.14;44.38
36798;BME280;22748;8.426;99.512;2023-05-13T12:00:55;100434.69;;;36.13;44.37
36798;BME280;22748;8.426;99.512;2023-05-13T12:03:27;100439.53;;;36.11;44.35
36798;BME280;22748;8.426;99.512;2023-05-13T12:06:01;100443.84;;;36.07;44.55
36798;BME280;22748;8.426;99.512;2023-05-13T12:08:32;100447.06;;;36.04;44.65
36798;BME280;22748;8.426;99.512;2023-05-13T12:11:05;100443.81;;;36.02;44.53
36798;BME280;22748;8.426;99.512;2023-05-13T12:13:41;100447.06;;;36.04;44.67
36798;BME280;22748;8.426;99.512;2023-05-13T12:16:11;100448.41;;;36.01;44.74
36798;BME280;22748;8.426;99.512;2023-05-13T12:18:42;100454.13;;;36.00;44.59
36798;BME280;22748;8.426;99.512;2023-05-13T12:21:24;100453.03;;;36.01;44.95
36798;BME280;22748;8.426;99.512;2023-05-13T12:23:55;100466.06;;;35.99;44.94
36798;BME280;22748;8.426;99.512;2023-05-13T12:26:28;100468.22;;;35.97;45.04
36798;BME280;22748;8.426;99.512;2023-05-13T12:29:06;100479.34;;;35.95;45.23
36798;BME280;22748;8.426;99.512;2023-05-13T12:31:36;100477.47;;;35.96;45.49
36798;BME280;22748;8.426;99.512;2023-05-13T12:34:11;100493.47;;;35.92;45.33
36798;BME280;22748;8.426;99.512;2023-05-13T12:36:45;100498.59;;;35.89;45.46
36798;BME280;22748;8.426;99.512;2023-05-13T12:39:20;100509.47;;;35.89;45.47
36798;BME280;22748;8.426;99.512;2023-05-13T12:41:53;100525.78;;;35.89;45.60
36798;BME280;22748;8.426;99.512;2023-05-13T12:44:24;100525.78;;;35.89;45.72
36798;BME280;22748;8.426;99.512;2023-05-13T12:46:57;100526.63;;;35.89;45.88
36798;BME280;22748;8.426;99.512;2023-05-13T12:49:27;100531.22;;;35.89;46.02
36798;BME280;22748;8.426;99.512;2023-05-13T12:52:00;100528.78;;;35.87;45.79
36798;BME280;22748;8.426;99.512;2023-05-13T12:54:32;100551.34;;;35.88;46.02
36798;BME280;22748;8.426;99.512;2023-05-13T12:57:15;100557.31;;;35.84;46.31
36798;BME280;22748;8.426;99.512;2023-05-13T12:59:46;100562.47;;;35.86;46.15
36798;BME280;22748;8.426;99.512;2023-05-13T13:02:16;100564.34;;;35.86;46.71
36798;BME280;22748;8.426;99.512;2023-05-13T13:04:47;100561.63;;;35.86;46.42
36798;BME280;22748;8.426;99.512;2023-05-13T13:07:18;100569.78;;;35.86;46.41
36798;BME280;22748;8.426;99.512;2023-05-13T13:09:48;100579.56;;;35.87;46.67
36798;BME280;22748;8.426;99.512;2023-05-13T13:12:20;100577.94;;;35.86;46.50
36798;BME280;22748;8.426;99.512;2023-05-13T13:14:51;100593.69;;;35.83;46.84
36798;BME280;22748;8.426;99.512;2023-05-13T13:17:20;100606.16;;;35.79;46.64
36798;BME280;22748;8.426;99.512;2023-05-13T13:19:50;100604.75;;;35.77;47.33
36798;BME280;22748;8.426;99.512;2023-05-13T13:22:20;100623.47;;;35.73;47.70
36798;BME280;22748;8.426;99.512;2023-05-13T13:24:50;100622.84;;;35.66;47.28